sensor_id;sensor_type;location;lat;lon;timestamp;pressure;altitude;pressure_sealevel;temperature;humidity
60437;BME280;46289;51.992;4.498;2022-07-22T00:01:23;102350.47;;;15.99;100.00
60437;BME280;46289;51.992;4.498;2022-07-22T00:03:55;102358.47;;;16.02;100.00
60437;BME280;46289;51.992;4.498;2022-07-22T00:06:25;102353.19;;;16.02;100.00
60437;BME280;46289;51.992;4.498;2022-07-22T00:08:56;102352.34;;;16.05;100.00
60437;BME280;46289;51.992;4.498;2022-07-22T00:11:27;102352.28;;;16.01;100.00
60437;BME280;46289;51.992;4.498;2022-07-22T00:14:01;102351.41;;;16.02;100.00
60437;BME280;46289;51.992;4.498;2022-07-22T00:16:39;102352.31;;;16.03;100.00
60437;BME280;46289;51.992;4.498;2022-07-22T00:19:11;102353.19;;;16.02;100.00
60437;BME280;46289;51.992;4.498;2022-07-22T00:21:42;102348.78;;;16.02;100.00
60437;BME280;46289;51.992;4.498;2022-07-22T00:24:13;102341.75;;;16.05;100.00
60437;BME280;46289;51.992;4.498;2022-07-22T00:26:43;102345.25;;;16.03;100.00
60437;BME280;46289;51.992;4.498;2022-07-22T00:29:14;102343.47;;;16.02;100.00
60437;BME280;46289;51.992;4.498;2022-07-22T00:31:47;102343.47;;;16.02;100.00
60437;BME280;46289;51.992;4.498;2022-07-22T00:34:17;102336.41;;;16.01;100.00
60437;BME280;46289;51.992;4.498;2022-07-22T00:36:47;102337.31;;;16.02;100.00
60437;BME280;46289;51.992;4.498;2022-07-22T00:39:20;102336.41;;;16.01;100.00
60437;BME280;46289;51.992;4.498;2022-07-22T00:41:51;102331.06;;;15.98;100.00
60437;BME280;46289;51.992;4.498;2022-07-22T00:44:21;102335.47;;;15.98;100.00
60437;BME280;46289;51.992;4.498;2022-07-22T00:46:55;102323.13;;;15.98;100.00
60437;BME280;46289;51.992;4.498;2022-07-22T00:49:25;102327.50;;;15.96;100.00
60437;BME280;46289;51.992;4.498;2022-07-22T00:51:55;102332.81;;;15.96;100.00
60437;BME280;46289;51.992;4.498;2022-07-22T00:54:25;102331.88;;;15.93;100.00
60437;BME280;46289;51.992;4.498;2022-07-22T00:56:55;102330.97;;;15.91;100.00
60437;BME280;46289;51.992;4.498;2022-07-22T00:59:27;102325.69;;;15.92;100.00
60437;BME280;46289;51.992;4.498;2022-07-22T01:02:05;102319.47;;;15.90;100.00
60437;BME280;46289;51.992;4.498;2022-07-22T01:04:36;102323.06;;;15.94;100.00
60437;BME280;46289;51.992;4.498;2022-07-22T01:07:07;102318.63;;;15.91;100.00
60437;BME280;46289;51.992;4.498;2022-07-22T01:09:42;102322.16;;;15.92;100.00
60437;BME280;46289;51.992;4.498;2022-07-22T01:12:13;102317.72;;;15.89;100.00
60437;BME280;46289;51.992;4.498;2022-07-22T01:14:44;102322.13;;;15.90;100.00
60437;BME280;46289;51.992;4.498;2022-07-22T01:17:19;102319.47;;;15.89;100.00
60437;BME280;46289;51.992;4.498;2022-07-22T01:20:01;102327.41;;;15.90;100.00
60437;BME280;46289;51.992;4.498;2022-07-22T01:22:36;102321.25;;;15.90;100.00
60437;BME280;46289;51.992;4.498;2022-07-22T01:25:07;102318.53;;;15.87;100.00
60437;BME280;46289;51.992;4.498;2022-07-22T01:27:38;102317.63;;;15.85;100.00
60437;BME280;46289;51.992;4.498;2022-07-22T01:30:09;102312.38;;;15.88;100.00
60437;BME280;46289;51.992;4.498;2022-07-22T01:32:43;102314.16;;;15.89;100.00
60437;BME280;46289;51.992;4.498;2022-07-22T01:35:15;102316.81;;;15.89;100.00
60437;BME280;46289;51.992;4.498;2022-07-22T01:37:48;102313.31;;;15.91;100.00
60437;BME280;46289;51.992;4.498;2022-07-22T01:40:20;102311.47;;;15.86;100.00
60437;BME280;46289;51.992;4.498;2022-07-22T01:42:51;102315.00;;;15.86;100.00
60437;BME280;46289;51.992;4.498;2022-07-22T01:45:21;102318.56;;;15.88;100.00
60437;BME280;46289;51.992;4.498;2022-07-22T01:47:51;102317.69;;;15.88;100.00
60437;BME280;46289;51.992;4.498;2022-07-22T01:50:24;102318.56;;;15.88;100.00
60437;BME280;46289;51.992;4.498;2022-07-22T01:52:55;102312.38;;;15.88;100.00
60437;BME280;46289;51.992;4.498;2022-07-22T01:55:25;102307.94;;;15.85;100.00
60437;BME280;46289;51.992;4.498;2022-07-22T01:57:57;102307.06;;;15.85;100.00
60437;BME280;46289;51.992;4.498;2022-07-22T02:00:28;102307.00;;;15.82;100.00
60437;BME280;46289;51.992;4.498;2022-07-22T02:03:00;102302.59;;;15.81;100.00
60437;BME280;46289;51.992;4.498;2022-07-22T02:05:35;102310.56;;;15.84;100.00
60437;BME280;46289;51.992;4.498;2022-07-22T02:08:09;102307.94;;;15.85;100.00
60437;BME280;46289;51.992;4.498;2022-07-22T02:10:41;102306.16;;;15.83;100.00
60437;BME280;46289;51.992;4.498;2022-07-22T02:13:11;102305.28;;;15.84;100.00
60437;BME280;46289;51.992;4.498;2022-07-22T02:15:41;102297.38;;;15.85;100.00
60437;BME280;46289;51.992;4.498;2022-07-22T02:18:12;102298.22;;;15.84;100.00
60437;BME280;46289;51.992;4.498;2022-07-22T02:20:46;102300.91;;;15.87;100.00
60437;BME280;46289;51.992;4.498;2022-07-22T02:23:17;102303.50;;;15.83;100.00
60437;BME280;46289;51.992;4.498;2022-07-22T02:25:48;102299.09;;;15.83;100.00
60437;BME280;46289;51.992;4.498;2022-07-22T02:28:19;102302.63;;;15.84;100.00
60437;BME280;46289;51.992;4.498;2022-07-22T02:30:50;102300.00;;;15.85;100.00
60437;BME280;46289;51.992;4.498;2022-07-22T02:33:21;102303.44;;;15.80;100.00
60437;BME280;46289;51.992;4.498;2022-07-22T02:35:57;102305.19;;;15.78;100.00
60437;BME280;46289;51.992;4.498;2022-07-22T02:38:27;102288.41;;;15.77;100.00
60437;BME280;46289;51.992;4.498;2022-07-22T02:40:57;102288.41;;;15.76;100.00
60437;BME280;46289;51.992;4.498;2022-07-22T02:43:28;102291.94;;;15.76;100.00
60437;BME280;46289;51.992;4.498;2022-07-22T02:46:00;102292.84;;;15.78;100.00
60437;BME280;46289;51.992;4.498;2022-07-22T02:48:34;102284.91;;;15.78;100.00
60437;BME280;46289;51.992;4.498;2022-07-22T02:51:10;102288.47;;;15.80;100.00
60437;BME280;46289;51.992;4.498;2022-07-22T02:53:41;102285.84;;;15.82;100.00
60437;BME280;46289;51.992;4.498;2022-07-22T02:56:11;102281.41;;;15.79;100.00
60437;BME280;46289;51.992;4.498;2022-07-22T02:58:44;102281.41;;;15.79;100.00
60437;BME280;46289;51.992;4.498;2022-07-22T03:01:14;102275.19;;;15.76;100.00
60437;BME280;46289;51.992;4.498;2022-07-22T03:03:45;102279.59;;;15.77;100.00
60437;BME280;46289;51.992;4.498;2022-07-22T03:06:17;102279.56;;;15.75;100.00
60437;BME280;46289;51.992;4.498;2022-07-22T03:08:48;102274.25;;;15.74;100.00
60437;BME280;46289;51.992;4.498;2022-07-22T03:11:21;102271.63;;;15.75;100.00
60437;BME280;46289;51.992;4.498;2022-07-22T03:13:53;102283.13;;;15.77;100.00
60437;BME280;46289;51.992;4.498;2022-07-22T03:16:23;102272.56;;;15.77;100.00
60437;BME280;46289;51.992;4.498;2022-07-22T03:18:54;102277.84;;;15.77;100.00
60437;BME280;46289;51.992;4.498;2022-07-22T03:21:28;102286.69;;;15.79;100.00
60437;BME280;46289;51.992;4.498;2022-07-22T03:24:01;102284.91;;;15.78;100.00
60437;BME280;46289;51.992;4.498;2022-07-22T03:26:35;102287.50;;;15.75;100.00
60437;BME280;46289;51.992;4.498;2022-07-22T03:29:08;102283.94;;;15.73;100.00
60437;BME280;46289;51.992;4.498;2022-07-22T03:31:38;102283.09;;;15.74;100.00
60437;BME280;46289;51.992;4.498;2022-07-22T03:34:08;102289.25;;;15.73;100.00
60437;BME280;46289;51.992;4.498;2022-07-22T03:36:42;102290.16;;;15.75;100.00
60437;BME280;46289;51.992;4.498;2022-07-22T03:39:13;102298.09;;;15.75;100.00
60437;BME280;46289;51.992;4.498;2022-07-22T03:41:43;102289.25;;;15.75;100.00
60437;BME280;46289;51.992;4.498;2022-07-22T03:44:13;102293.66;;;15.74;100.00
60437;BME280;46289;51.992;4.498;2022-07-22T03:46:43;102286.56;;;15.72;100.00
60437;BME280;46289;51.992;4.498;2022-07-22T03:49:13;102285.69;;;15.71;100.00
60437;BME280;46289;51.992;4.498;2022-07-22T03:51:47;102284.81;;;15.72;100.00
60437;BME280;46289;51.992;4.498;2022-07-22T03:54:19;102294.50;;;15.72;100.00
60437;BME280;46289;51.992;4.498;2022-07-22T03:56:49;102295.41;;;15.72;100.00
60437;BME280;46289;51.992;4.498;2022-07-22T03:59:19;102290.97;;;15.71;100.00
60437;BME280;46289;51.992;4.498;2022-07-22T04:01:49;102296.31;;;15.74;100.00
60437;BME280;46289;51.992;4.498;2022-07-22T04:04:20;102295.50;;;15.78;100.00
60437;BME280;46289;51.992;4.498;2022-07-22T04:06:53;102295.53;;;15.81;100.00
60437;BME280;46289;51.992;4.498;2022-07-22T04:09:23;102297.38;;;15.85;100.00
60437;BME280;46289;51.992;4.498;2022-07-22T04:11:56;102297.38;;;15.85;100.00
60437;BME280;46289;51.992;4.498;2022-07-22T04:14:34;102293.84;;;15.86;100.00
60437;BME280;46289;51.992;4.498;2022-07-22T04:17:07;102300.06;;;15.88;100.00
60437;BME280;46289;51.992;4.498;2022-07-22T04:19:42;102292.06;;;15.85;100.00
60437;BME280;46289;51.992;4.498;2022-07-22T04:22:15;102290.34;;;15.87;100.00
60437;BME280;46289;51.992;4.498;2022-07-22T04:24:45;102287.72;;;15.90;100.00
60437;BME280;46289;51.992;4.498;2022-07-22T04:27:15;102293.91;;;15.89;100.00
60437;BME280;46289;51.992;4.498;2022-07-22T04:29:46;102286.81;;;15.88;100.00
60437;BME280;46289;51.992;4.498;2022-07-22T04:32:20;102292.22;;;15.94;100.00
60437;BME280;46289;51.992;4.498;2022-07-22T04:34:50;102286.91;;;15.94;100.00
60437;BME280;46289;51.992;4.498;2022-07-22T04:37:23;102284.25;;;15.93;100.00
60437;BME280;46289;51.992;4.498;2022-07-22T04:39:55;102283.38;;;15.94;100.00
60437;BME280;46289;51.992;4.498;2022-07-22T04:42:28;102275.50;;;15.98;100.00
60437;BME280;46289;51.992;4.498;2022-07-22T04:45:00;102282.66;;;16.06;100.00
60437;BME280;46289;51.992;4.498;2022-07-22T04:47:36;102278.28;;;16.08;100.00
60437;BME280;46289;51.992;4.498;2022-07-22T04:50:10;102272.97;;;16.08;100.00
60437;BME280;46289;51.992;4.498;2022-07-22T04:52:46;102291.53;;;16.09;100.00
60437;BME280;46289;51.992;4.498;2022-07-22T04:55:17;102290.72;;;16.15;100.00
60437;BME280;46289;51.992;4.498;2022-07-22T04:57:47;102279.28;;;16.17;100.00
60437;BME280;46289;51.992;4.498;2022-07-22T05:00:17;102278.41;;;16.17;100.00
60437;BME280;46289;51.992;4.498;2022-07-22T05:02:48;102276.63;;;16.17;100.00
60437;BME280;46289;51.992;4.498;2022-07-22T05:05:19;102287.28;;;16.22;100.00
60437;BME280;46289;51.992;4.498;2022-07-22T05:07:52;102282.13;;;16.31;100.00
60437;BME280;46289;51.992;4.498;2022-07-22T05:10:22;102285.72;;;16.36;100.00
60437;BME280;46289;51.992;4.498;2022-07-22T05:12:56;102283.16;;;16.44;100.00
60437;BME280;46289;51.992;4.498;2022-07-22T05:15:35;102274.41;;;16.49;100.00
60437;BME280;46289;51.992;4.498;2022-07-22T05:18:05;102285.03;;;16.54;100.00
60437;BME280;46289;51.992;4.498;2022-07-22T05:20:38;102271.81;;;16.55;100.00
60437;BME280;46289;51.992;4.498;2022-07-22T05:23:13;102280.53;;;16.45;100.00
60437;BME280;46289;51.992;4.498;2022-07-22T05:25:46;102265.63;;;16.55;100.00
60437;BME280;46289;51.992;4.498;2022-07-22T05:28:16;102267.44;;;16.57;100.00
60437;BME280;46289;51.992;4.498;2022-07-22T05:30:46;102277.19;;;16.61;100.00
60437;BME280;46289;51.992;4.498;2022-07-22T05:33:16;102273.63;;;16.59;100.00
60437;BME280;46289;51.992;4.498;2022-07-22T05:35:46;102278.16;;;16.68;100.00
60437;BME280;46289;51.992;4.498;2022-07-22T05:38:20;102287.09;;;16.78;100.00
60437;BME280;46289;51.992;4.498;2022-07-22T05:40:50;102281.75;;;16.76;100.00
60437;BME280;46289;51.992;4.498;2022-07-22T05:43:20;102273.00;;;16.82;100.00
60437;BME280;46289;51.992;4.498;2022-07-22T05:45:50;102277.44;;;16.86;100.00
60437;BME280;46289;51.992;4.498;2022-07-22T05:48:21;102272.97;;;16.80;100.00
60437;BME280;46289;51.992;4.498;2022-07-22T05:50:51;102274.81;;;16.86;100.00
60437;BME280;46289;51.992;4.498;2022-07-22T05:53:28;102270.38;;;16.85;100.00
60437;BME280;46289;51.992;4.498;2022-07-22T05:55:59;102280.38;;;17.13;100.00
60437;BME280;46289;51.992;4.498;2022-07-22T05:58:40;102285.81;;;17.30;100.00
60437;BME280;46289;51.992;4.498;2022-07-22T06:01:11;102281.50;;;17.40;100.00
60437;BME280;46289;51.992;4.498;2022-07-22T06:03:42;102277.97;;;17.41;100.00
60437;BME280;46289;51.992;4.498;2022-07-22T06:06:12;102277.94;;;17.38;100.00
60437;BME280;46289;51.992;4.498;2022-07-22T06:08:45;102278.75;;;17.30;99.59
60437;BME280;46289;51.992;4.498;2022-07-22T06:11:20;102276.91;;;17.22;99.13
60437;BME280;46289;51.992;4.498;2022-07-22T06:13:50;102276.13;;;17.32;99.99
60437;BME280;46289;51.992;4.498;2022-07-22T06:16:20;102278.72;;;17.27;99.17
60437;BME280;46289;51.992;4.498;2022-07-22T06:18:50;102276.00;;;17.20;98.86
60437;BME280;46289;51.992;4.498;2022-07-22T06:21:21;102261.88;;;17.21;99.34
60437;BME280;46289;51.992;4.498;2022-07-22T06:23:54;102260.28;;;17.40;99.88
60437;BME280;46289;51.992;4.498;2022-07-22T06:26:24;102266.50;;;17.45;99.68
60437;BME280;46289;51.992;4.498;2022-07-22T06:28:54;102269.25;;;17.57;99.39
60437;BME280;46289;51.992;4.498;2022-07-22T06:31:24;102273.78;;;17.67;99.90
60437;BME280;46289;51.992;4.498;2022-07-22T06:33:55;102274.69;;;17.78;99.02
60437;BME280;46289;51.992;4.498;2022-07-22T06:36:25;102278.25;;;17.79;97.67
60437;BME280;46289;51.992;4.498;2022-07-22T06:38:58;102277.34;;;17.80;98.42
60437;BME280;46289;51.992;4.498;2022-07-22T06:41:35;102284.56;;;18.01;97.14
60437;BME280;46289;51.992;4.498;2022-07-22T06:44:07;102274.78;;;17.93;95.99
60437;BME280;46289;51.992;4.498;2022-07-22T06:46:44;102278.31;;;17.92;97.22
60437;BME280;46289;51.992;4.498;2022-07-22T06:49:15;102274.72;;;17.81;96.49
60437;BME280;46289;51.992;4.498;2022-07-22T06:51:45;102278.34;;;17.94;96.45
60437;BME280;46289;51.992;4.498;2022-07-22T06:54:20;102278.44;;;18.15;97.95
60437;BME280;46289;51.992;4.498;2022-07-22T06:56:50;102279.41;;;18.28;98.26
60437;BME280;46289;51.992;4.498;2022-07-22T06:59:20;102275.88;;;18.32;97.27
60437;BME280;46289;51.992;4.498;2022-07-22T07:01:50;102278.50;;;18.29;95.76
60437;BME280;46289;51.992;4.498;2022-07-22T07:04:22;102285.41;;;17.93;94.63
60437;BME280;46289;51.992;4.498;2022-07-22T07:06:54;102276.34;;;17.61;96.86
60437;BME280;46289;51.992;4.498;2022-07-22T07:09:30;102281.72;;;17.67;96.56
60437;BME280;46289;51.992;4.498;2022-07-22T07:12:07;102282.69;;;17.84;97.61
60437;BME280;46289;51.992;4.498;2022-07-22T07:14:42;102280.16;;;18.03;97.42
60437;BME280;46289;51.992;4.498;2022-07-22T07:17:35;102281.91;;;18.02;96.24
60437;BME280;46289;51.992;4.498;2022-07-22T07:20:09;102279.31;;;18.13;94.98
60437;BME280;46289;51.992;4.498;2022-07-22T07:22:42;102269.59;;;18.18;95.03
60437;BME280;46289;51.992;4.498;2022-07-22T07:25:16;102274.97;;;18.27;95.16
60437;BME280;46289;51.992;4.498;2022-07-22T07:27:51;102276.75;;;18.31;95.09
60437;BME280;46289;51.992;4.498;2022-07-22T07:30:22;102276.78;;;18.40;95.82
60437;BME280;46289;51.992;4.498;2022-07-22T07:32:54;102275.94;;;18.47;95.51
60437;BME280;46289;51.992;4.498;2022-07-22T07:35:24;102277.66;;;18.39;95.63
60437;BME280;46289;51.992;4.498;2022-07-22T07:37:57;102280.34;;;18.45;94.31
60437;BME280;46289;51.992;4.498;2022-07-22T07:40:39;102281.19;;;18.32;94.27
60437;BME280;46289;51.992;4.498;2022-07-22T07:43:11;102276.75;;;18.33;93.54
60437;BME280;46289;51.992;4.498;2022-07-22T07:45:42;102277.66;;;18.35;94.69
60437;BME280;46289;51.992;4.498;2022-07-22T07:48:15;102282.13;;;18.43;94.33
60437;BME280;46289;51.992;4.498;2022-07-22T07:50:45;102276.81;;;18.49;93.87
60437;BME280;46289;51.992;4.498;2022-07-22T07:53:19;102274.19;;;18.58;92.36
60437;BME280;46289;51.992;4.498;2022-07-22T07:55:55;102267.09;;;18.59;93.20
60437;BME280;46289;51.992;4.498;2022-07-22T07:58:41;102268.84;;;18.48;92.14
60437;BME280;46289;51.992;4.498;2022-07-22T08:01:32;102268.00;;;18.56;93.17
60437;BME280;46289;51.992;4.498;2022-07-22T08:04:24;102266.28;;;18.68;91.22
60437;BME280;46289;51.992;4.498;2022-07-22T08:07:06;102271.59;;;18.86;90.21
60437;BME280;46289;51.992;4.498;2022-07-22T08:09:43;102277.81;;;18.92;89.35
60437;BME280;46289;51.992;4.498;2022-07-22T08:12:16;102266.31;;;19.09;88.90
60437;BME280;46289;51.992;4.498;2022-07-22T08:14:46;102262.78;;;19.11;88.71
60437;BME280;46289;51.992;4.498;2022-07-22T08:17:18;102266.34;;;19.30;88.24
60437;BME280;46289;51.992;4.498;2022-07-22T08:19:52;102261.00;;;19.45;87.73
60437;BME280;46289;51.992;4.498;2022-07-22T08:22:22;102259.25;;;19.35;84.90
60437;BME280;46289;51.992;4.498;2022-07-22T08:24:55;102253.94;;;19.52;85.81
60437;BME280;46289;51.992;4.498;2022-07-22T08:27:29;102259.25;;;19.55;84.98
60437;BME280;46289;51.992;4.498;2022-07-22T08:30:08;102259.22;;;19.43;81.14
60437;BME280;46289;51.992;4.498;2022-07-22T08:32:38;102256.56;;;19.20;81.84
60437;BME280;46289;51.992;4.498;2022-07-22T08:35:09;102262.78;;;19.45;83.01
60437;BME280;46289;51.992;4.498;2022-07-22T08:37:42;102259.22;;;19.50;80.66
60437;BME280;46289;51.992;4.498;2022-07-22T08:40:16;102246.75;;;19.78;81.28
60437;BME280;46289;51.992;4.498;2022-07-22T08:42:50;102252.94;;;19.91;80.30
60437;BME280;46289;51.992;4.498;2022-07-22T08:45:20;102253.72;;;20.22;79.22
60437;BME280;46289;51.992;4.498;2022-07-22T08:47:53;102235.91;;;20.32;77.62
60437;BME280;46289;51.992;4.498;2022-07-22T08:50:23;102231.44;;;20.37;77.63
60437;BME280;46289;51.992;4.498;2022-07-22T08:52:54;102238.56;;;20.36;74.94
60437;BME280;46289;51.992;4.498;2022-07-22T08:55:24;102240.28;;;20.51;72.26
60437;BME280;46289;51.992;4.498;2022-07-22T08:57:57;102245.63;;;20.52;73.23
60437;BME280;46289;51.992;4.498;2022-07-22T09:00:31;102243.50;;;20.97;72.63
60437;BME280;46289;51.992;4.498;2022-07-22T09:03:21;102238.56;;;21.59;71.35
60437;BME280;46289;51.992;4.498;2022-07-22T09:05:55;102237.28;;;21.90;67.91
60437;BME280;46289;51.992;4.498;2022-07-22T09:08:28;102232.22;;;21.69;67.91
60437;BME280;46289;51.992;4.498;2022-07-22T09:11:15;102230.50;;;22.38;66.82
60437;BME280;46289;51.992;4.498;2022-07-22T09:13:51;102221.19;;;22.67;63.71
60437;BME280;46289;51.992;4.498;2022-07-22T09:16:44;102222.28;;;23.09;61.90
60437;BME280;46289;51.992;4.498;2022-07-22T09:19:15;102216.59;;;22.75;60.34
60437;BME280;46289;51.992;4.498;2022-07-22T09:21:45;102217.19;;;22.34;63.21
60437;BME280;46289;51.992;4.498;2022-07-22T09:24:31;102228.78;;;22.33;64.48
60437;BME280;46289;51.992;4.498;2022-07-22T09:27:07;102244.41;;;21.91;63.27
60437;BME280;46289;51.992;4.498;2022-07-22T09:29:48;102237.53;;;21.72;62.97
60437;BME280;46289;51.992;4.498;2022-07-22T09:32:21;102238.88;;;22.09;62.21
60437;BME280;46289;51.992;4.498;2022-07-22T09:35:01;102232.28;;;21.63;63.21
60437;BME280;46289;51.992;4.498;2022-07-22T09:37:37;102227.75;;;21.72;63.38
60437;BME280;46289;51.992;4.498;2022-07-22T09:40:12;102228.56;;;21.77;62.33
60437;BME280;46289;51.992;4.498;2022-07-22T09:42:46;102233.25;;;21.57;64.47
60437;BME280;46289;51.992;4.498;2022-07-22T09:45:22;102232.97;;;21.81;62.42
60437;BME280;46289;51.992;4.498;2022-07-22T09:47:59;102238.41;;;21.74;63.10
60437;BME280;46289;51.992;4.498;2022-07-22T09:50:42;102238.75;;;22.20;61.99
60437;BME280;46289;51.992;4.498;2022-07-22T09:53:13;102245.13;;;22.08;60.79
60437;BME280;46289;51.992;4.498;2022-07-22T09:55:45;102247.97;;;22.64;59.73
60437;BME280;46289;51.992;4.498;2022-07-22T09:58:16;102239.47;;;22.94;57.72
60437;BME280;46289;51.992;4.498;2022-07-22T10:00:52;102240.56;;;23.36;59.10
60437;BME280;46289;51.992;4.498;2022-07-22T10:03:25;102250.63;;;23.22;58.20
60437;BME280;46289;51.992;4.498;2022-07-22T10:06:02;102243.91;;;22.34;58.22
60437;BME280;46289;51.992;4.498;2022-07-22T10:08:42;102225.03;;;21.77;60.37
60437;BME280;46289;51.992;4.498;2022-07-22T10:11:12;102247.16;;;22.57;59.46
60437;BME280;46289;51.992;4.498;2022-07-22T10:13:45;102237.34;;;21.87;58.24
60437;BME280;46289;51.992;4.498;2022-07-22T10:16:21;102231.59;;;22.87;57.53
60437;BME280;46289;51.992;4.498;2022-07-22T10:18:54;102233.06;;;23.58;58.50
60437;BME280;46289;51.992;4.498;2022-07-22T10:21:31;102243.97;;;22.92;56.44
60437;BME280;46289;51.992;4.498;2022-07-22T10:24:11;102246.66;;;23.44;58.66
60437;BME280;46289;51.992;4.498;2022-07-22T10:26:53;102235.88;;;22.97;57.83
60437;BME280;46289;51.992;4.498;2022-07-22T10:29:27;102248.78;;;22.69;60.58
60437;BME280;46289;51.992;4.498;2022-07-22T10:32:31;102249.69;;;22.68;61.01
60437;BME280;46289;51.992;4.498;2022-07-22T10:38:11;102256.25;;;21.70;61.79
60437;BME280;46289;51.992;4.498;2022-07-22T10:40:48;102261.25;;;21.04;65.41
60437;BME280;46289;51.992;4.498;2022-07-22T10:43:21;102264.69;;;21.23;65.48
60437;BME280;46289;51.992;4.498;2022-07-22T10:46:06;102255.78;;;21.18;66.86
60437;BME280;46289;51.992;4.498;2022-07-22T10:48:48;102243.13;;;21.47;64.98
60437;BME280;46289;51.992;4.498;2022-07-22T10:51:19;102237.13;;;22.73;64.81
60437;BME280;46289;51.992;4.498;2022-07-22T10:53:55;102231.19;;;23.09;62.63
60437;BME280;46289;51.992;4.498;2022-07-22T10:56:28;102220.25;;;22.03;61.64
60437;BME280;46289;51.992;4.498;2022-07-22T10:59:09;102219.25;;;23.30;60.94
60437;BME280;46289;51.992;4.498;2022-07-22T11:01:45;102204.22;;;24.14;57.83
60437;BME280;46289;51.992;4.498;2022-07-22T11:04:23;102201.66;;;24.08;55.82
60437;BME280;46289;51.992;4.498;2022-07-22T11:06:57;102201.59;;;24.53;55.91
60437;BME280;46289;51.992;4.498;2022-07-22T11:09:32;102211.09;;;24.67;54.74
60437;BME280;46289;51.992;4.498;2022-07-22T11:12:12;102205.13;;;23.71;55.71
60437;BME280;46289;51.992;4.498;2022-07-22T11:14:42;102194.53;;;24.07;55.27
60437;BME280;46289;51.992;4.498;2022-07-22T11:17:12;102202.16;;;24.67;54.21
60437;BME280;46289;51.992;4.498;2022-07-22T11:19:50;102195.28;;;24.92;54.43
60437;BME280;46289;51.992;4.498;2022-07-22T11:22:21;102208.44;;;25.37;53.29
60437;BME280;46289;51.992;4.498;2022-07-22T11:24:54;102207.44;;;25.07;53.20
60437;BME280;46289;51.992;4.498;2022-07-22T11:27:25;102207.69;;;24.96;51.85
60437;BME280;46289;51.992;4.498;2022-07-22T11:29:57;102209.03;;;24.78;53.60
60437;BME280;46289;51.992;4.498;2022-07-22T11:32:27;102197.84;;;24.97;53.22
60437;BME280;46289;51.992;4.498;2022-07-22T11:35:12;102198.41;;;25.09;52.08
60437;BME280;46289;51.992;4.498;2022-07-22T11:37:42;102187.06;;;24.98;52.50
60437;BME280;46289;51.992;4.498;2022-07-22T11:40:14;102185.59;;;25.21;51.48
60437;BME280;46289;51.992;4.498;2022-07-22T11:42:48;102178.59;;;25.15;50.94
60437;BME280;46289;51.992;4.498;2022-07-22T11:45:57;102160.03;;;24.33;51.57
60437;BME280;46289;51.992;4.498;2022-07-22T11:48:39;102156.16;;;24.47;52.32
60437;BME280;46289;51.992;4.498;2022-07-22T11:51:20;102157.63;;;23.79;53.00
60437;BME280;46289;51.992;4.498;2022-07-22T11:53:51;102151.53;;;24.13;53.52
60437;BME280;46289;51.992;4.498;2022-07-22T11:56:24;102153.91;;;24.27;53.77
60437;BME280;46289;51.992;4.498;2022-07-22T11:59:01;102159.28;;;24.25;53.53
60437;BME280;46289;51.992;4.498;2022-07-22T12:01:36;102160.59;;;24.06;53.18
60437;BME280;46289;51.992;4.498;2022-07-22T12:04:15;102158.06;;;24.00;52.70
60437;BME280;46289;51.992;4.498;2022-07-22T12:06:51;102169.53;;;23.15;56.16
60437;BME280;46289;51.992;4.498;2022-07-22T12:09:24;102176.72;;;23.13;56.08
60437;BME280;46289;51.992;4.498;2022-07-22T12:11:57;102181.81;;;23.27;55.80
60437;BME280;46289;51.992;4.498;2022-07-22T12:14:29;102175.38;;;23.39;55.31
60437;BME280;46289;51.992;4.498;2022-07-22T12:17:07;102171.03;;;23.79;54.38
60437;BME280;46289;51.992;4.498;2022-07-22T12:19:40;102166.81;;;24.08;54.97
60437;BME280;46289;51.992;4.498;2022-07-22T12:22:20;102160.06;;;23.92;54.20
60437;BME280;46289;51.992;4.498;2022-07-22T12:25:09;102149.22;;;23.55;53.76
60437;BME280;46289;51.992;4.498;2022-07-22T12:27:39;102161.47;;;23.66;54.52
60437;BME280;46289;51.992;4.498;2022-07-22T12:30:13;102164.91;;;23.25;53.88
60437;BME280;46289;51.992;4.498;2022-07-22T12:32:47;102175.66;;;23.24;54.82
60437;BME280;46289;51.992;4.498;2022-07-22T12:35:21;102157.47;;;23.41;54.92
60437;BME280;46289;51.992;4.498;2022-07-22T12:37:55;102152.81;;;23.51;54.08
60437;BME280;46289;51.992;4.498;2022-07-22T12:40:25;102153.41;;;24.08;53.88
60437;BME280;46289;51.992;4.498;2022-07-22T12:43:00;102159.00;;;24.39;52.83
60437;BME280;46289;51.992;4.498;2022-07-22T12:45:36;102150.78;;;23.65;52.98
60437;BME280;46289;51.992;4.498;2022-07-22T12:48:09;102150.59;;;24.14;52.11
60437;BME280;46289;51.992;4.498;2022-07-22T12:50:41;102146.31;;;23.65;53.32
60437;BME280;46289;51.992;4.498;2022-07-22T12:53:16;102152.72;;;24.40;51.99
60437;BME280;46289;51.992;4.498;2022-07-22T12:55:49;102142.63;;;24.87;50.91
60437;BME280;46289;51.992;4.498;2022-07-22T12:58:21;102142.88;;;24.40;51.49
60437;BME280;46289;51.992;4.498;2022-07-22T13:00:53;102147.84;;;24.57;50.74
60437;BME280;46289;51.992;4.498;2022-07-22T13:03:24;102157.66;;;24.58;50.71
60437;BME280;46289;51.992;4.498;2022-07-22T13:05:57;102145.75;;;24.33;50.56
60437;BME280;46289;51.992;4.498;2022-07-22T13:08:34;102155.25;;;24.46;50.45
60437;BME280;46289;51.992;4.498;2022-07-22T13:11:11;102150.53;;;23.77;51.26
60437;BME280;46289;51.992;4.498;2022-07-22T13:13:42;102151.00;;;23.96;51.74
60437;BME280;46289;51.992;4.498;2022-07-22T13:16:12;102150.28;;;24.29;51.23
60437;BME280;46289;51.992;4.498;2022-07-22T13:18:44;102152.13;;;23.41;52.27
60437;BME280;46289;51.992;4.498;2022-07-22T13:21:15;102152.09;;;22.93;53.00